Time;durP1;ratioP1;P1;durP2;ratioP2;P2;SDS_P1;SDS_P2;PMS_P1;PMS_P2;Temp;Humidity;BMP_temperature;BMP_pressure;BME280_temperature;BME280_humidity;BME280_pressure;Samples;Min_cycle;Max_cycle;Signal;HPM_P1;HPM_P2
2022/04/13 00:00:30;;;;;;;10.40;3.80;;;;;;;16.16;56.82;101019.03;4897955;29;20055;-49
2022/04/13 00:02:58;;;;;;;13.43;4.20;;;;;;;16.17;57.17;101029.75;4897858;29;20109;-49
2022/04/13 00:05:27;;;;;;;7.93;3.47;;;;;;;16.18;57.26;101031.34;4899624;29;20503;-48
2022/04/13 00:07:55;;;;;;;10.40;3.75;;;;;;;16.18;57.11;101025.84;4882102;29;20504;-47
2022/04/13 00:10:23;;;;;;;12.38;4.22;;;;;;;16.18;57.02;101025.84;4897130;29;20052;-49
2022/04/13 00:12:51;;;;;;;13.43;3.72;;;;;;;16.18;57.37;101025.84;4898780;29;20484;-49
2022/04/13 00:15:18;;;;;;;8.60;3.22;;;;;;;16.18;57.26;101030.56;4901610;29;20499;-48
2022/04/13 00:17:46;;;;;;;10.25;3.83;;;;;;;16.15;57.38;101031.97;4900642;29;20047;-47
2022/04/13 00:20:14;;;;;;;11.45;4.05;;;;;;;16.14;57.37;101024.84;4897489;29;20104;-47
2022/04/13 00:22:41;;;;;;;10.93;4.30;;;;;;;16.13;57.58;101025.94;4898618;29;20469;-45
2022/04/13 00:25:10;;;;;;;11.32;4.05;;;;;;;16.13;57.52;101028.69;4898965;29;20056;-46
2022/04/13 00:27:38;;;;;;;11.40;3.97;;;;;;;16.11;57.84;101025.44;4897400;29;20092;-46
2022/04/13 00:30:06;;;;;;;12.10;4.18;;;;;;;16.10;57.65;101028.50;4898208;29;20480;-50
2022/04/13 00:32:34;;;;;;;10.90;3.72;;;;;;;16.08;57.69;101026.03;4898966;29;20037;-47
2022/04/13 00:35:04;;;;;;;10.50;4.30;;;;;;;16.07;57.87;101029.09;4904449;29;20048;-48
2022/04/13 00:37:33;;;;;;;10.05;3.85;;;;;;;16.06;58.39;101028.25;4917445;29;20052;-49
2022/04/13 00:40:00;;;;;;;12.43;4.47;;;;;;;16.04;58.38;101037.94;4900562;29;20052;-48
2022/04/13 00:42:29;;;;;;;12.43;4.30;;;;;;;16.03;58.26;101034.38;4912327;29;20412;-49
2022/04/13 00:44:57;;;;;;;9.70;3.78;;;;;;;16.02;58.63;101042.91;4909658;29;20054;-49
2022/04/13 00:47:26;;;;;;;9.45;4.20;;;;;;;16.00;58.14;101045.97;4904173;29;20123;-48
2022/04/13 00:49:54;;;;;;;13.48;4.13;;;;;;;15.98;58.37;101046.25;4898171;29;20059;-47
2022/04/13 00:52:23;;;;;;;9.38;3.67;;;;;;;15.97;58.77;101052.88;4898190;29;20083;-49
2022/04/13 00:54:51;;;;;;;11.68;4.00;;;;;;;15.97;58.85;101043.81;4899160;29;20133;-49
2022/04/13 00:57:19;;;;;;;12.95;4.18;;;;;;;15.96;58.83;101056.72;4896889;29;20420;-46
2022/04/13 00:59:48;;;;;;;10.18;3.63;;;;;;;15.95;58.93;101057.03;4897796;29;20044;-43
2022/04/13 01:02:17;;;;;;;11.13;3.58;;;;;;;15.94;59.08;101066.38;4897386;29;20400;-47
2022/04/13 01:04:46;;;;;;;11.65;4.20;;;;;;;15.92;58.73;101072.19;4898291;29;20051;-47
2022/04/13 01:07:13;;;;;;;12.90;4.15;;;;;;;15.91;58.90;101069.75;4881252;29;20048;-49
2022/04/13 01:09:41;;;;;;;10.32;3.80;;;;;;;15.90;58.96;101068.13;4898011;29;20051;-49
2022/04/13 01:12:09;;;;;;;11.57;4.07;;;;;;;15.89;59.51;101075.53;4897506;29;20041;-48
2022/04/13 01:14:37;;;;;;;11.85;4.00;;;;;;;15.88;59.49;101075.84;4899027;29;20056;-48
2022/04/13 01:17:04;;;;;;;14.88;4.38;;;;;;;15.86;59.51;101083.56;4898229;29;20086;-48
2022/04/13 01:19:32;;;;;;;11.25;3.95;;;;;;;15.85;59.50;101087.41;4897043;29;20461;-47
2022/04/13 01:22:14;;;;;;;13.27;5.22;;;;;;;15.83;59.80;101092.41;4898281;29;20533;-48
2022/04/13 01:24:42;;;;;;;10.93;3.70;;;;;;;15.80;60.01;101098.47;4900175;29;20542;-47
2022/04/13 01:27:10;;;;;;;14.35;4.13;;;;;;;15.80;59.89;101095.72;4912244;29;20036;-49
2022/04/13 01:29:37;;;;;;;10.60;3.97;;;;;;;15.77;59.95;101102.63;4896876;29;20041;-48
2022/04/13 01:32:05;;;;;;;13.27;4.30;;;;;;;15.76;60.10;101101.81;4896751;29;20625;-49
2022/04/13 01:34:33;;;;;;;15.82;4.70;;;;;;;15.74;60.21;101104.03;4897965;29;20066;-49
2022/04/13 01:37:01;;;;;;;11.68;4.13;;;;;;;15.73;60.36;101118.09;4897741;29;20048;-49
2022/04/13 01:39:29;;;;;;;13.00;4.75;;;;;;;15.72;60.67;101109.00;4916339;29;20109;-47
2022/04/13 01:41:57;;;;;;;14.70;4.50;;;;;;;15.70;60.64;101113.97;4915412;29;20130;-47
2022/04/13 01:44:25;;;;;;;13.32;4.93;;;;;;;15.69;60.67;101115.06;4915178;29;20044;-48
2022/04/13 01:46:53;;;;;;;15.38;4.70;;;;;;;15.68;60.58;101118.94;4901277;29;20044;-50
2022/04/13 01:49:20;;;;;;;15.15;4.55;;;;;;;15.64;61.05;101115.13;4896811;29;20041;-47
2022/04/13 01:51:48;;;;;;;10.85;4.20;;;;;;;15.64;61.29;101126.13;4897088;29;20048;-49
2022/04/13 01:54:15;;;;;;;11.68;4.30;;;;;;;15.61;61.53;101128.63;4905459;29;20050;-50
2022/04/13 01:56:43;;;;;;;12.25;4.53;;;;;;;15.59;61.27;101133.63;4916498;29;20080;-47
2022/04/13 01:59:11;;;;;;;14.80;4.68;;;;;;;15.57;61.76;101136.66;4901868;29;20041;-49
2022/04/13 02:01:43;;;;;;;16.38;4.85;;;;;;;15.56;61.65;101140.50;4895355;29;20055;-49
2022/04/13 02:04:23;;;;;;;13.20;5.13;;;;;;;15.54;62.20;101146.31;4900985;29;20048;-49
2022/04/13 02:06:50;;;;;;;15.77;4.82;;;;;;;15.51;62.68;101143.31;4899468;29;20052;-50
2022/04/13 02:09:18;;;;;;;17.27;5.30;;;;;;;15.48;62.56;101141.97;4897691;29;20044;-49
2022/04/13 02:11:47;;;;;;;14.93;4.70;;;;;;;15.45;62.91;101147.25;4900572;29;20100;-49
2022/04/13 02:14:15;;;;;;;12.02;4.97;;;;;;;15.44;63.58;101142.84;4901009;29;20125;-48
2022/04/13 02:16:42;;;;;;;14.77;5.07;;;;;;;15.41;63.79;101147.00;4900545;29;20041;-48
2022/04/13 02:19:12;;;;;;;15.90;5.35;;;;;;;15.41;63.67;101148.94;4900852;29;20044;-48
2022/04/13 02:21:40;;;;;;;12.93;5.38;;;;;;;15.40;64.11;101147.31;4901207;29;20057;-50
2022/04/13 02:24:07;;;;;;;13.05;4.95;;;;;;;15.38;63.93;101150.34;4899048;29;20055;-46
2022/04/13 02:26:35;;;;;;;13.60;4.82;;;;;;;15.38;64.20;101153.09;4913688;29;20048;-46
2022/04/13 02:29:03;;;;;;;12.30;4.75;;;;;;;15.37;64.44;101148.72;4919900;29;20511;-46
2022/04/13 02:31:30;;;;;;;12.65;5.20;;;;;;;15.36;64.68;101154.50;4914926;29;20036;-43
2022/04/13 02:33:58;;;;;;;11.95;5.43;;;;;;;15.33;64.59;101164.94;4883851;29;20068;-45
2022/04/13 02:36:26;;;;;;;17.48;5.75;;;;;;;15.30;65.21;101160.03;4903040;29;20060;-44
2022/04/13 02:38:54;;;;;;;13.65;5.60;;;;;;;15.29;65.34;101161.13;4901014;29;20143;-43
2022/04/13 02:41:21;;;;;;;16.45;5.63;;;;;;;15.28;65.44;101162.25;4900806;29;20080;-46
2022/04/13 02:43:49;;;;;;;12.68;5.35;;;;;;;15.27;65.90;101163.38;4900657;29;20075;-49
2022/04/13 02:46:17;;;;;;;16.17;5.68;;;;;;;15.26;65.92;101167.22;4901737;29;20047;-48
2022/04/13 02:48:44;;;;;;;14.55;5.35;;;;;;;15.26;66.16;101169.16;4900282;29;20047;-47
2022/04/13 02:51:12;;;;;;;15.38;5.75;;;;;;;15.24;66.14;101172.16;4900343;29;20044;-48
2022/04/13 02:53:40;;;;;;;15.88;6.22;;;;;;;15.25;66.21;101173.81;4900400;29;20555;-47
2022/04/13 02:56:07;;;;;;;13.93;5.60;;;;;;;15.25;66.38;101181.22;4900113;29;20056;-46
2022/04/13 02:58:35;;;;;;;14.43;5.18;;;;;;;15.24;66.54;101182.34;4903826;29;20525;-48
2022/04/13 03:01:03;;;;;;;13.32;5.60;;;;;;;15.21;66.61;101183.75;4909348;29;20068;-48
2022/04/13 03:03:31;;;;;;;12.32;5.32;;;;;;;15.19;66.74;101191.44;4900144;29;20500;-49
2022/04/13 03:05:58;;;;;;;13.10;5.25;;;;;;;15.17;67.30;101190.91;4900410;29;20127;-50
2022/04/13 03:08:26;;;;;;;12.35;5.25;;;;;;;15.16;67.23;101189.28;4899417;29;20602;-47
2022/04/13 03:10:54;;;;;;;16.40;5.38;;;;;;;15.16;67.19;101196.72;4900140;29;20084;-49
2022/04/13 03:13:21;;;;;;;13.95;5.55;;;;;;;15.12;67.56;101189.03;4899415;29;20071;-48
2022/04/13 03:15:49;;;;;;;12.70;5.32;;;;;;;15.11;67.59;101192.09;4900226;29;20415;-48
2022/04/13 03:18:17;;;;;;;11.10;5.40;;;;;;;15.09;67.73;101188.81;4901969;29;20041;-48
2022/04/13 03:20:44;;;;;;;15.45;5.05;;;;;;;15.07;68.11;101188.28;4916819;29;20060;-44
2022/04/13 03:23:12;;;;;;;12.82;5.28;;;;;;;15.06;67.87;101181.16;4898466;29;20128;-49
2022/04/13 03:25:40;;;;;;;13.23;5.30;;;;;;;15.05;68.30;101185.00;4899333;29;20049;-49
2022/04/13 03:28:07;;;;;;;12.25;5.57;;;;;;;15.03;68.29;101181.72;4884388;29;20052;-49
2022/04/13 03:30:35;;;;;;;10.20;5.30;;;;;;;15.02;68.54;101180.91;4900180;29;20504;-49
2022/04/13 03:33:03;;;;;;;14.88;5.40;;;;;;;15.03;68.45;101181.72;4899845;29;20052;-44
2022/04/13 03:35:31;;;;;;;16.65;5.28;;;;;;;15.02;68.57;101182.84;4899254;29;20431;-44
2022/04/13 03:38:00;;;;;;;15.60;5.57;;;;;;;15.02;68.76;101180.09;4901356;29;20052;-44
2022/04/13 03:40:28;;;;;;;17.63;5.30;;;;;;;15.00;68.97;101185.88;4899799;29;20056;-45
2022/04/13 03:42:55;;;;;;;13.27;5.28;;;;;;;14.98;68.99;101190.81;4899782;29;20131;-43
2022/04/13 03:45:24;;;;;;;13.38;5.45;;;;;;;14.97;69.46;101188.38;4899422;29;20042;-44
2022/04/13 03:47:51;;;;;;;14.07;5.15;;;;;;;14.95;69.36;101191.41;4900317;29;20070;-44
2022/04/13 03:50:19;;;;;;;13.88;5.70;;;;;;;14.96;69.32;101189.47;4899132;29;20048;-44
2022/04/13 03:52:47;;;;;;;18.73;5.47;;;;;;;14.94;69.65;101188.97;4899496;29;20127;-46
2022/04/13 03:55:14;;;;;;;12.27;5.82;;;;;;;14.90;69.53;101189.53;4898999;29;20512;-45
2022/04/13 03:57:42;;;;;;;13.52;5.50;;;;;;;14.91;69.89;101193.91;4905185;29;20054;-44
2022/04/13 04:00:10;;;;;;;13.52;5.70;;;;;;;14.89;69.82;101196.13;4905642;29;20049;-45
2022/04/13 04:02:40;;;;;;;13.13;5.63;;;;;;;14.88;69.68;101191.72;4897755;29;20060;-43
2022/04/13 04:05:08;;;;;;;19.33;5.53;;;;;;;14.86;70.17;101191.22;4898227;29;20433;-43
2022/04/13 04:07:36;;;;;;;13.00;5.30;;;;;;;14.84;70.08;101200.81;4898588;29;20043;-43
2022/04/13 04:10:05;;;;;;;15.65;5.93;;;;;;;14.83;70.51;101210.97;4904731;29;20044;-43
2022/04/13 04:12:40;;;;;;;13.32;5.40;;;;;;;14.82;70.14;101203.06;4916106;29;20047;-43
2022/04/13 04:15:09;;;;;;;14.27;5.25;;;;;;;14.81;70.62;101213.19;4897535;29;20063;-48
2022/04/13 04:17:37;;;;;;;16.65;5.72;;;;;;;14.80;70.52;101211.56;4899051;29;20048;-47
2022/04/13 04:20:06;;;;;;;14.98;5.97;;;;;;;14.77;70.81;101212.16;4914776;29;20056;-48
2022/04/13 04:22:35;;;;;;;14.68;5.35;;;;;;;14.77;70.91;101217.63;4914601;29;20460;-46
2022/04/13 04:25:08;;;;;;;16.00;6.22;;;;;;;14.76;70.75;101217.91;4897801;29;20041;-47
2022/04/13 04:27:36;;;;;;;10.50;5.45;;;;;;;14.74;71.09;101223.66;4897243;29;20496;-48
2022/04/13 04:30:04;;;;;;;18.63;6.20;;;;;;;14.72;71.02;101228.66;4899064;29;20511;-50
2022/04/13 04:32:32;;;;;;;13.65;5.60;;;;;;;14.73;71.12;101229.47;4898006;29;20051;-47
2022/04/13 04:35:00;;;;;;;15.52;5.60;;;;;;;14.72;71.17;101231.38;4898567;29;20059;-48
2022/04/13 04:37:27;;;;;;;16.45;6.10;;;;;;;14.70;71.40;101239.06;4898492;29;20056;-46
2022/04/13 04:39:55;;;;;;;14.07;6.47;;;;;;;14.69;71.40;101243.72;4898099;29;20047;-44
2022/04/13 04:42:22;;;;;;;16.88;5.90;;;;;;;14.67;71.53;101239.63;4909884;29;20070;-44
2022/04/13 04:44:56;;;;;;;19.63;6.22;;;;;;;14.66;71.68;101246.22;4917225;29;20048;-43
2022/04/13 04:47:27;;;;;;;14.82;6.13;;;;;;;14.64;71.84;101245.69;4917649;29;20059;-47
2022/04/13 04:49:54;;;;;;;13.05;6.07;;;;;;;14.63;72.01;101253.09;4916009;29;20041;-48
2022/04/13 04:52:23;;;;;;;14.82;6.55;;;;;;;14.60;72.28;101253.69;4901333;29;20551;-49
2022/04/13 04:54:50;;;;;;;19.20;6.97;;;;;;;14.57;72.54;101245.19;4903412;29;20522;-48
2022/04/13 04:57:18;;;;;;;19.55;6.40;;;;;;;14.52;72.92;101253.41;4901636;29;20487;-50
2022/04/13 04:59:46;;;;;;;17.95;7.43;;;;;;;14.45;73.26;101268.25;4897199;29;20037;-46
2022/04/13 05:02:14;;;;;;;16.98;6.72;;;;;;;14.43;73.69;101266.91;4914828;29;20111;-53
2022/04/13 05:04:42;;;;;;;11.40;5.45;;;;;;;14.45;73.38;101268.25;4916941;29;20052;-50
2022/04/13 05:07:10;;;;;;;12.73;6.10;;;;;;;14.47;73.26;101263.31;4899985;29;20124;-51
2022/04/13 05:09:38;;;;;;;14.45;7.00;;;;;;;14.45;73.18;101265.50;4904485;29;20032;-51
2022/04/13 05:12:06;;;;;;;13.85;6.32;;;;;;;14.41;73.65;101269.13;4917089;29;20048;-49
2022/04/13 05:14:34;;;;;;;14.75;6.45;;;;;;;14.37;73.67;101288.06;4916894;29;20044;-52
2022/04/13 05:17:02;;;;;;;15.30;5.97;;;;;;;14.38;73.71;101297.09;4916041;29;20562;-50
2022/04/13 05:19:34;;;;;;;13.68;5.85;;;;;;;14.38;73.78;101297.09;4903230;29;20059;-51
2022/04/13 05:22:02;;;;;;;13.65;5.80;;;;;;;14.39;73.65;101288.59;4916980;29;20099;-52
2022/04/13 05:24:30;;;;;;;15.35;5.47;;;;;;;14.42;73.49;101298.97;4915952;29;20052;-51
2022/04/13 05:27:09;;;;;;;13.77;6.53;;;;;;;14.44;73.30;101296.78;4636813;29;10000628;-49
2022/04/13 05:29:37;;;;;;;13.85;6.55;;;;;;;14.45;73.36;101303.91;4884368;29;20260;-51
2022/04/13 05:32:05;;;;;;;13.48;5.97;;;;;;;14.45;73.30;101309.38;4896404;29;20076;-51
2022/04/13 05:34:32;;;;;;;13.85;6.35;;;;;;;14.46;73.21;101311.03;4894694;29;20049;-54
2022/04/13 05:37:00;;;;;;;13.85;6.10;;;;;;;14.47;73.04;101312.66;4894718;29;20053;-47
2022/04/13 05:39:28;;;;;;;14.57;6.55;;;;;;;14.47;73.19;101318.16;4898349;29;20075;-51
2022/04/13 05:41:56;;;;;;;18.13;7.50;;;;;;;14.47;73.13;101315.41;4913723;29;20048;-51
2022/04/13 05:44:24;;;;;;;19.70;6.63;;;;;;;14.48;73.20;101319.00;4902097;29;20045;-49
2022/04/13 05:46:52;;;;;;;14.60;7.00;;;;;;;14.48;73.25;101324.47;4898572;29;20408;-50
2022/04/13 05:49:20;;;;;;;14.98;7.00;;;;;;;14.51;73.25;101323.91;4899199;29;20081;-49
2022/04/13 05:51:48;;;;;;;17.42;6.82;;;;;;;14.52;73.55;101332.94;4879590;29;20045;-51
2022/04/13 05:54:16;;;;;;;13.38;6.93;;;;;;;14.56;73.20;101334.06;4879596;29;20512;-49
2022/04/13 05:56:43;;;;;;;13.43;7.32;;;;;;;14.55;73.58;101332.41;4889935;29;20064;-49
2022/04/13 05:59:11;;;;;;;17.42;7.47;;;;;;;14.54;73.81;101342.56;4901329;29;20519;-50
2022/04/13 06:01:39;;;;;;;18.77;8.73;;;;;;;14.53;74.11;101340.06;4897524;29;20051;-50
2022/04/13 06:04:07;;;;;;;15.52;7.95;;;;;;;14.51;74.33;101345.84;4898193;29;20556;-48
2022/04/13 06:06:34;;;;;;;15.07;8.18;;;;;;;14.52;74.32;101350.22;4897835;29;20060;-45
2022/04/13 06:09:02;;;;;;;23.98;8.20;;;;;;;14.52;74.61;101347.47;4897961;29;20593;-45
2022/04/13 06:11:30;;;;;;;17.27;8.45;;;;;;;14.52;74.75;101349.41;4897760;29;20059;-46
2022/04/13 06:13:57;;;;;;;17.33;8.52;;;;;;;14.52;75.06;101354.88;4897601;29;20056;-47
2022/04/13 06:16:25;;;;;;;17.02;8.85;;;;;;;14.51;75.00;101356.00;4897570;29;20076;-46
2022/04/13 06:18:52;;;;;;;17.05;9.05;;;;;;;14.51;75.17;101356.81;4897579;29;20056;-46
2022/04/13 06:21:20;;;;;;;13.82;6.75;;;;;;;14.53;74.94;101362.00;4898197;29;20060;-44
2022/04/13 06:23:48;;;;;;;15.50;8.15;;;;;;;14.54;75.40;101360.94;4901249;29;20036;-47
2022/04/13 06:26:15;;;;;;;24.15;8.93;;;;;;;14.56;75.42;101364.22;4895932;29;20068;-48
2022/04/13 06:28:43;;;;;;;20.27;9.18;;;;;;;14.57;75.73;101371.34;4897528;29;20770;-47
2022/04/13 06:31:11;;;;;;;19.63;9.68;;;;;;;14.58;75.80;101367.50;4904657;29;20070;-44
2022/04/13 06:33:39;;;;;;;20.88;9.35;;;;;;;14.58;75.88;101365.56;4898854;29;20041;-47
2022/04/13 06:36:08;;;;;;;17.27;9.57;;;;;;;14.60;76.13;101370.75;4897063;29;20060;-49
2022/04/13 06:38:40;;;;;;;19.15;9.63;;;;;;;14.60;76.59;101376.25;4897244;29;20064;-45
2022/04/13 06:41:09;;;;;;;23.15;9.80;;;;;;;14.60;76.82;101370.75;4899670;29;20054;-51
2022/04/13 06:43:37;;;;;;;21.60;10.38;;;;;;;14.61;77.26;101377.91;4897522;29;20052;-52
2022/04/13 06:46:05;;;;;;;17.33;9.25;;;;;;;14.59;77.66;101369.94;4897061;29;20057;-51
2022/04/13 06:48:33;;;;;;;24.73;10.05;;;;;;;14.60;78.10;101376.25;4895893;29;20045;-50
2022/04/13 06:51:02;;;;;;;22.73;11.30;;;;;;;14.59;78.50;101380.91;4905586;29;20048;-53
2022/04/13 06:53:30;;;;;;;25.25;12.27;;;;;;;14.57;79.04;101385.88;4908637;29;20056;-51
2022/04/13 06:55:58;;;;;;;18.13;11.43;;;;;;;14.60;79.15;101388.06;4896348;29;20044;-50
2022/04/13 06:58:26;;;;;;;23.10;11.93;;;;;;;14.66;79.40;101391.59;4896284;29;20514;-49
2022/04/13 07:00:57;;;;;;;26.70;12.73;;;;;;;14.67;79.52;101396.81;4904644;29;20041;-48
2022/04/13 07:03:25;;;;;;;24.50;12.35;;;;;;;14.66;80.25;101406.13;4918013;29;20123;-47
2022/04/13 07:05:54;;;;;;;21.02;11.43;;;;;;;14.65;80.28;101418.22;4919204;29;20523;-50
2022/04/13 07:08:22;;;;;;;20.95;12.57;;;;;;;14.63;81.08;101409.44;4919197;29;20051;-50
2022/04/13 07:10:49;;;;;;;23.10;13.05;;;;;;;14.62;81.39;101428.91;4911504;29;20142;-51
2022/04/13 07:13:17;;;;;;;22.40;12.35;;;;;;;14.61;81.46;101430.81;4900153;29;20044;-51
2022/04/13 07:15:45;;;;;;;27.67;12.50;;;;;;;14.62;81.87;101428.91;4900326;29;20558;-51
2022/04/13 07:18:12;;;;;;;25.50;12.70;;;;;;;14.64;81.75;101422.03;4900450;29;20064;-51
2022/04/13 07:20:40;;;;;;;21.67;12.93;;;;;;;14.63;82.19;101422.34;4900864;29;20544;-50
2022/04/13 07:23:07;;;;;;;28.30;13.90;;;;;;;14.62;82.11;101427.00;4899853;29;20411;-52
2022/04/13 07:25:36;;;;;;;22.17;13.18;;;;;;;14.61;82.52;101428.09;4900173;29;20564;-50
2022/04/13 07:28:04;;;;;;;24.48;14.27;;;;;;;14.60;82.69;101451.13;4900243;29;20379;-50
2022/04/13 07:30:31;;;;;;;27.60;14.07;;;;;;;14.58;82.72;101456.06;4902454;29;20043;-54
2022/04/13 07:33:01;;;;;;;25.80;14.52;;;;;;;14.59;82.80;101452.22;4898549;29;20048;-50
2022/04/13 07:35:31;;;;;;;24.55;13.20;;;;;;;14.61;83.05;101468.41;4927583;29;20500;-52
2022/04/13 07:37:59;;;;;;;26.05;15.45;;;;;;;14.62;83.38;101467.31;4898345;29;20058;-51
2022/04/13 07:40:26;;;;;;;24.50;15.45;;;;;;;14.63;83.61;101471.69;4904269;29;20080;-52
2022/04/13 07:42:54;;;;;;;25.60;14.50;;;;;;;14.64;83.43;101476.88;4898229;29;20054;-51
2022/04/13 07:45:22;;;;;;;27.30;15.15;;;;;;;14.69;83.33;101470.56;4898379;29;20045;-47
2022/04/13 07:47:50;;;;;;;24.35;14.82;;;;;;;14.72;83.38;101471.94;4882373;29;20055;-54
2022/04/13 07:50:17;;;;;;;23.70;13.32;;;;;;;14.76;82.79;101478.50;4904567;29;20052;-52
2022/04/13 07:52:45;;;;;;;24.98;11.05;;;;;;;14.86;81.85;101473.81;4898127;29;20565;-50
2022/04/13 07:55:13;;;;;;;19.55;11.70;;;;;;;15.01;81.50;101466.59;4899050;29;20439;-50
2022/04/13 07:57:41;;;;;;;23.58;14.77;;;;;;;15.03;81.67;101472.63;4899302;29;20040;-52
2022/04/13 08:00:10;;;;;;;22.42;14.68;;;;;;;14.99;81.95;101472.38;4899968;29;20049;-53
2022/04/13 08:02:42;;;;;;;24.58;13.93;;;;;;;14.95;81.93;101467.72;4897822;29;20045;-54
2022/04/13 08:05:12;;;;;;;23.58;14.55;;;;;;;14.88;82.12;101477.06;4890581;29;20507;-52
2022/04/13 08:07:41;;;;;;;23.90;14.15;;;;;;;14.84;82.48;101476.00;4898096;29;20088;-51
2022/04/13 08:10:09;;;;;;;27.88;14.30;;;;;;;14.81;82.87;101483.97;4915465;29;20132;-53
2022/04/13 08:12:39;;;;;;;21.05;14.02;;;;;;;14.80;83.24;101488.63;4895301;29;20456;-52
2022/04/13 08:15:08;;;;;;;29.48;14.20;;;;;;;14.80;83.30;101480.41;4928443;29;20536;-52
2022/04/13 08:17:38;;;;;;;23.73;13.75;;;;;;;14.82;83.63;101494.66;4928921;29;20135;-53
2022/04/13 08:20:14;;;;;;;19.55;11.05;;;;;;;14.88;83.11;101499.03;4919433;29;20036;-51
2022/04/13 08:22:43;;;;;;;20.50;12.38;;;;;;;14.94;82.86;101490.78;4926724;29;20510;-51
2022/04/13 08:25:12;;;;;;;22.05;13.05;;;;;;;14.93;82.62;101500.13;4928367;29;20124;-55
2022/04/13 08:27:43;;;;;;;24.30;12.68;;;;;;;14.91;82.28;101501.22;4909362;29;20069;-52
2022/04/13 08:30:12;;;;;;;23.80;11.82;;;;;;;14.95;82.05;101495.16;4899249;29;20494;-50
2022/04/13 08:32:40;;;;;;;22.27;11.85;;;;;;;14.99;82.20;101499.00;4898176;29;20049;-55
2022/04/13 08:35:09;;;;;;;24.20;11.85;;;;;;;14.99;81.20;101499.81;4898272;29;20108;-53
2022/04/13 08:37:37;;;;;;;19.75;11.80;;;;;;;14.96;81.91;101502.28;4896623;29;20116;-51
2022/04/13 08:40:09;;;;;;;17.40;11.27;;;;;;;14.97;82.49;101506.69;4898594;29;20045;-51
2022/04/13 08:42:52;;;;;;;21.33;11.30;;;;;;;15.07;81.79;101509.38;4897691;29;20123;-51
2022/04/13 08:45:23;;;;;;;18.70;10.77;;;;;;;15.13;81.08;101511.00;4884996;29;20044;-50
2022/04/13 08:47:56;;;;;;;22.52;12.52;;;;;;;15.15;81.51;101519.75;4898033;29;20040;-50
2022/04/13 08:50:27;;;;;;;21.63;11.25;;;;;;;15.13;81.30;101514.56;4904042;29;20092;-54
2022/04/13 08:52:58;;;;;;;18.75;11.68;;;;;;;15.16;81.16;101510.44;4888038;29;20028;-54
2022/04/13 08:55:29;;;;;;;18.55;12.23;;;;;;;15.17;80.89;101512.06;4899992;29;20096;-51
2022/04/13 08:58:11;;;;;;;21.17;11.40;;;;;;;15.19;81.47;101512.63;4921717;29;20041;-53
2022/04/13 09:00:45;;;;;;;19.23;11.20;;;;;;;15.22;80.78;101522.22;4894490;29;20518;-55
2022/04/13 09:03:43;;;;;;;20.38;9.95;;;;;;;15.24;80.54;101518.06;4923370;29;20127;-54
2022/04/13 09:06:11;;;;;;;18.42;10.10;;;;;;;15.28;80.12;101530.16;4911774;29;20044;-51
2022/04/13 09:08:39;;;;;;;19.75;10.93;;;;;;;15.30;80.37;101527.94;4898190;29;20055;-49
2022/04/13 09:11:07;;;;;;;21.58;10.63;;;;;;;15.36;80.03;101530.66;4902244;29;20044;-55
2022/04/13 09:13:35;;;;;;;20.27;11.60;;;;;;;15.35;79.69;101538.09;4898264;29;20044;-56
2022/04/13 09:16:04;;;;;;;19.38;11.25;;;;;;;15.36;79.71;101536.16;4906904;29;20054;-50
2022/04/13 09:18:31;;;;;;;20.65;11.05;;;;;;;15.37;80.37;101524.06;4911723;29;20038;-51
2022/04/13 09:21:00;;;;;;;21.70;11.27;;;;;;;15.40;79.98;101529.81;4916494;29;20063;-55
2022/04/13 09:23:29;;;;;;;18.38;11.68;;;;;;;15.45;79.92;101518.78;4904179;29;20102;-54
2022/04/13 09:25:58;;;;;;;25.33;12.95;;;;;;;15.48;80.07;101528.38;4904971;29;20043;-54
2022/04/13 09:28:26;;;;;;;22.45;12.38;;;;;;;15.48;79.77;101523.72;4902647;29;20048;-54
2022/04/13 09:30:54;;;;;;;20.58;11.93;;;;;;;15.50;79.69;101529.75;4915437;29;20051;-50
2022/04/13 09:33:23;;;;;;;18.60;9.32;;;;;;;15.52;79.31;101546.78;4901497;29;20040;-51
2022/04/13 09:35:53;;;;;;;19.48;10.40;;;;;;;15.53;79.08;101547.59;4905360;29;20051;-51
2022/04/13 09:38:21;;;;;;;17.42;8.80;;;;;;;15.54;78.52;101555.53;4905454;29;20044;-55
2022/04/13 09:40:52;;;;;;;16.88;9.57;;;;;;;15.52;78.61;101551.44;4902982;29;20040;-57
2022/04/13 09:43:22;;;;;;;21.40;9.50;;;;;;;15.53;78.45;101553.06;4905454;29;20100;-54
2022/04/13 09:45:51;;;;;;;27.25;13.27;;;;;;;15.58;78.46;101550.28;4914395;29;20044;-56
2022/04/13 09:48:21;;;;;;;41.25;16.58;;;;;;;15.61;77.81;101558.00;4903497;29;20123;-55
2022/04/13 09:50:50;;;;;;;23.13;11.63;;;;;;;15.66;78.43;101552.47;4902454;29;20420;-56
2022/04/13 09:53:20;;;;;;;17.27;9.45;;;;;;;15.67;78.57;101565.06;4887808;29;20040;-52
2022/04/13 09:55:53;;;;;;;18.30;11.05;;;;;;;15.67;79.22;101564.25;4902757;29;20106;-55
2022/04/13 09:58:23;;;;;;;24.50;12.82;;;;;;;15.62;78.96;101562.38;4903233;29;20120;-56
2022/04/13 10:00:53;;;;;;;17.25;11.13;;;;;;;15.58;79.59;101569.53;4915279;29;20092;-53
2022/04/13 10:03:22;;;;;;;16.73;10.38;;;;;;;15.57;79.63;101569.81;4913143;29;20511;-52
2022/04/13 10:05:55;;;;;;;19.25;10.23;;;;;;;15.55;79.85;101565.41;4892707;29;20051;-54
2022/04/13 10:08:24;;;;;;;23.23;11.20;;;;;;;15.54;80.08;101568.47;4903598;29;20048;-51
2022/04/13 10:11:00;;;;;;;21.50;11.68;;;;;;;15.53;80.77;101564.06;4898467;29;20119;-50
2022/04/13 10:13:35;;;;;;;16.70;11.18;;;;;;;15.53;81.14;101570.38;4913215;29;20123;-54
2022/04/13 10:16:06;;;;;;;20.38;10.30;;;;;;;15.54;80.76;101565.72;4904114;29;20411;-55
2022/04/13 10:19:04;;;;;;;23.67;11.98;;;;;;;15.57;81.06;101576.13;4919139;29;20049;-51
2022/04/13 10:21:36;;;;;;;16.23;10.23;;;;;;;15.58;80.68;101574.19;4907362;29;20487;-50
2022/04/13 10:24:10;;;;;;;21.77;11.07;;;;;;;15.59;80.67;101568.44;4902692;29;20053;-52
2022/04/13 10:26:39;;;;;;;18.20;10.68;;;;;;;15.59;80.92;101570.38;4902881;29;20055;-50
2022/04/13 10:29:16;;;;;;;23.17;11.13;;;;;;;15.57;80.78;101576.13;4903652;29;20053;-54
2022/04/13 10:32:07;;;;;;;16.42;9.63;;;;;;;15.56;80.81;101577.22;4900346;29;20075;-52
2022/04/13 10:34:59;;;;;;;19.75;8.95;;;;;;;15.53;80.18;101581.34;4565724;29;9999736;-51
2022/04/13 10:37:27;;;;;;;16.83;9.25;;;;;;;15.54;80.32;101582.19;4879535;29;20085;-49
2022/04/13 10:39:58;;;;;;;19.02;8.55;;;;;;;15.54;80.29;101583.03;4901564;29;20135;-51
2022/04/13 10:42:30;;;;;;;17.58;8.55;;;;;;;15.53;80.38;101586.03;4897105;29;20033;-53
2022/04/13 10:45:07;;;;;;;15.80;8.65;;;;;;;15.52;80.37;101596.22;4897148;29;20050;-50
2022/04/13 10:47:47;;;;;;;17.10;8.88;;;;;;;15.52;80.79;101596.22;4898137;29;20056;-56
2022/04/13 10:50:16;;;;;;;11.05;6.78;;;;;;;15.52;80.50;101590.72;4896336;29;20045;-52
2022/04/13 10:52:58;;;;;;;17.65;8.85;;;;;;;15.53;80.77;101586.03;4886684;29;20048;-53
2022/04/13 10:55:27;;;;;;;17.52;8.45;;;;;;;15.53;81.01;101597.84;4897546;29;20471;-52
2022/04/13 10:58:11;;;;;;;15.52;7.93;;;;;;;15.54;81.10;101593.19;4896603;29;20048;-54
2022/04/13 11:00:40;;;;;;;14.38;7.80;;;;;;;15.57;81.25;101605.53;4919071;29;20037;-53
2022/04/13 11:03:08;;;;;;;18.42;9.65;;;;;;;15.58;81.35;101602.50;4895740;29;20594;-55
2022/04/13 11:05:35;;;;;;;16.27;8.43;;;;;;;15.58;81.11;101594.25;4895687;29;20689;-56
2022/04/13 11:08:14;;;;;;;19.60;9.15;;;;;;;15.59;81.47;101606.91;4895124;29;20048;-55
2022/04/13 11:10:42;;;;;;;19.13;9.82;;;;;;;15.59;80.84;101609.63;4898444;29;20044;-54
2022/04/13 11:13:10;;;;;;;16.85;8.80;;;;;;;15.58;81.44;101609.91;4898796;29;20049;-52
2022/04/13 11:15:40;;;;;;;16.48;8.65;;;;;;;15.57;81.84;101620.09;4899507;29;20056;-51
2022/04/13 11:18:18;;;;;;;15.57;8.82;;;;;;;15.58;81.54;101609.91;4899834;29;20048;-51
2022/04/13 11:21:05;;;;;;;15.27;9.32;;;;;;;15.57;81.36;101614.59;4901578;29;20049;-52
2022/04/13 11:23:49;;;;;;;21.85;9.40;;;;;;;15.55;81.48;101616.78;4899910;29;20051;-55